Time;durP1;ratioP1;P1;durP2;ratioP2;P2;SDS_P1;SDS_P2;PMS_P1;PMS_P2;Temp;Humidity;BMP_temperature;BMP_pressure;BME280_temperature;BME280_humidity;BME280_pressure;Samples;Min_cycle;Max_cycle;Signal;HPM_P1;HPM_P2
2023/04/15 00:00:25;;;;;;;2.90;1.80;;;;;;;5.43;65.47;94606.28;6255497;22;20400;-81
2023/04/15 00:02:51;;;;;;;5.07;2.30;;;;;;;5.43;65.27;94606.28;6231093;22;20171;-79
2023/04/15 00:05:17;;;;;;;6.07;2.20;;;;;;;5.47;65.69;94596.50;6231874;22;20156;-81
2023/04/15 00:07:42;;;;;;;4.13;2.30;;;;;;;5.45;65.86;94603.56;6205736;22;20252;-81
2023/04/15 00:10:08;;;;;;;5.77;2.47;;;;;;;5.50;65.62;94601.41;6256894;22;20190;-80
2023/04/15 00:12:33;;;;;;;8.43;2.30;;;;;;;5.45;65.93;94599.22;6256767;22;20157;-81
2023/04/15 00:14:58;;;;;;;6.10;2.57;;;;;;;5.48;65.47;94598.13;6228508;22;20167;-81
2023/04/15 00:17:24;;;;;;;4.07;2.13;;;;;;;5.44;65.81;94594.22;6255129;22;20479;-81
2023/04/15 00:19:49;;;;;;;6.80;1.97;;;;;;;5.41;65.90;94595.31;6255923;22;20160;-81
2023/04/15 00:22:16;;;;;;;9.43;2.57;;;;;;;5.34;66.30;94604.53;6230412;22;20168;-81
2023/04/15 00:24:41;;;;;;;5.53;2.20;;;;;;;5.36;66.40;94597.47;6256289;22;20159;-81
2023/04/15 00:27:07;;;;;;;2.37;1.97;;;;;;;5.40;65.88;94602.22;6230826;22;20173;-80
2023/04/15 00:29:32;;;;;;;5.67;2.10;;;;;;;5.39;66.42;94603.19;6230832;22;20258;-81
2023/04/15 00:31:57;;;;;;;5.07;2.87;;;;;;;5.35;66.20;94591.53;6256026;22;20149;-81
2023/04/15 00:34:23;;;;;;;7.57;2.10;;;;;;;5.40;66.10;94596.28;6230476;22;20183;-80
2023/04/15 00:36:50;;;;;;;4.27;2.30;;;;;;;5.39;66.04;94585.16;6255254;22;20535;-81
2023/04/15 00:39:15;;;;;;;4.10;2.00;;;;;;;5.32;66.38;94581.50;6256288;22;20176;-80
2023/04/15 00:41:42;;;;;;;4.00;2.20;;;;;;;5.30;66.64;94586.00;6230852;22;20473;-81
2023/04/15 00:44:08;;;;;;;4.73;2.47;;;;;;;5.30;66.44;94583.41;6256802;22;20176;-80
2023/04/15 00:46:35;;;;;;;5.97;2.40;;;;;;;5.25;66.65;94588.16;6255735;22;20484;-79
2023/04/15 00:49:02;;;;;;;5.07;2.43;;;;;;;5.27;66.64;94585.44;6230835;22;20164;-81
2023/04/15 00:51:28;;;;;;;5.93;2.27;;;;;;;5.22;67.02;94585.06;6255408;22;20183;-80
2023/04/15 00:53:53;;;;;;;4.73;2.33;;;;;;;5.18;66.57;94579.38;6255086;22;20756;-80
2023/04/15 00:56:23;;;;;;;5.87;2.13;;;;;;;5.15;67.10;94579.66;6228468;22;20184;-80
2023/04/15 00:58:48;;;;;;;4.83;2.33;;;;;;;5.19;66.79;94582.75;6230464;22;20167;-82
2023/04/15 01:01:14;;;;;;;3.00;2.07;;;;;;;5.16;67.25;94586.41;6259778;22;20184;-81
2023/04/15 01:03:40;;;;;;;4.07;2.30;;;;;;;5.17;66.72;94582.09;6246729;22;20172;-80
2023/04/15 01:06:05;;;;;;;6.00;2.30;;;;;;;5.17;67.03;94585.47;6244449;22;20171;-81
2023/04/15 01:08:31;;;;;;;4.27;2.00;;;;;;;5.11;67.18;94586.00;6270954;22;20174;-81
2023/04/15 01:10:57;;;;;;;6.50;2.17;;;;;;;5.04;67.26;94590.09;6235910;22;20179;-79
2023/04/15 01:13:23;;;;;;;4.30;2.23;;;;;;;5.02;68.04;94590.22;6232951;22;20875;-81
2023/04/15 01:15:49;;;;;;;7.63;2.20;;;;;;;5.04;67.66;94588.34;6230399;22;20258;-81
2023/04/15 01:18:15;;;;;;;5.67;2.43;;;;;;;5.07;67.53;94589.81;6257467;22;20180;-82
2023/04/15 01:20:40;;;;;;;3.00;1.90;;;;;;;5.06;67.83;94586.44;6257815;22;20180;-80
2023/04/15 01:23:06;;;;;;;4.33;2.30;;;;;;;5.11;67.43;94584.25;6231659;22;20192;-82
2023/04/15 01:25:32;;;;;;;8.00;2.80;;;;;;;5.04;67.61;94574.66;6231646;22;20156;-81
2023/04/15 01:27:58;;;;;;;4.33;1.90;;;;;;;5.05;68.06;94582.25;6256116;22;20174;-81
2023/04/15 01:30:24;;;;;;;4.13;1.70;;;;;;;5.13;67.64;94580.75;6256044;22;20148;-79
2023/04/15 01:32:49;;;;;;;4.67;2.20;;;;;;;5.09;67.68;94577.63;6256368;22;20148;-81
2023/04/15 01:35:15;;;;;;;7.30;2.20;;;;;;;5.07;67.72;94585.47;6256233;22;20152;-81
2023/04/15 01:37:41;;;;;;;3.13;1.87;;;;;;;5.10;67.68;94577.47;6230213;22;20263;-79
2023/04/15 01:40:06;;;;;;;8.10;2.13;;;;;;;5.18;67.44;94581.13;6230144;22;20164;-81
2023/04/15 01:42:32;;;;;;;6.43;2.13;;;;;;;5.27;66.70;94585.44;6283090;22;20571;-81
2023/04/15 01:44:57;;;;;;;3.33;1.90;;;;;;;5.25;66.99;94572.72;6256846;22;20163;-81
2023/04/15 01:47:23;;;;;;;5.33;2.27;;;;;;;5.28;66.93;94581.91;6256211;22;20168;-81
2023/04/15 01:49:48;;;;;;;7.67;1.97;;;;;;;5.38;66.43;94569.81;6256547;22;20155;-81
2023/04/15 01:52:13;;;;;;;3.63;1.97;;;;;;;5.43;66.22;94570.22;6257316;22;20163;-79
2023/04/15 01:54:39;;;;;;;3.13;1.97;;;;;;;5.45;66.34;94570.91;6231376;22;20206;-81
2023/04/15 01:57:04;;;;;;;6.03;1.80;;;;;;;5.49;66.04;94574.84;6255400;22;20184;-80
2023/04/15 01:59:30;;;;;;;3.43;1.87;;;;;;;5.47;66.35;94568.97;6256552;22;20160;-81
2023/04/15 02:01:56;;;;;;;5.80;1.80;;;;;;;5.53;66.08;94568.44;6230157;22;20156;-81
2023/04/15 02:04:21;;;;;;;4.80;1.77;;;;;;;5.52;66.02;94569.38;6230803;22;20165;-81
2023/04/15 02:06:47;;;;;;;4.90;2.23;;;;;;;5.48;66.27;94569.78;6229672;22;20699;-81
2023/04/15 02:09:12;;;;;;;5.27;2.03;;;;;;;5.56;65.84;94570.72;6262741;22;20141;-79
2023/04/15 02:11:38;;;;;;;6.63;2.73;;;;;;;5.59;65.73;94573.03;6251303;22;20137;-79
2023/04/15 02:14:04;;;;;;;2.87;1.70;;;;;;;5.61;65.45;94567.72;6276050;22;20164;-78
2023/04/15 02:16:30;;;;;;;4.03;2.00;;;;;;;5.62;65.58;94564.19;6302839;22;20208;-78
2023/04/15 02:18:55;;;;;;;6.53;2.23;;;;;;;5.64;65.42;94567.44;6252080;22;20144;-80
2023/04/15 02:21:20;;;;;;;4.10;1.73;;;;;;;5.61;65.38;94565.97;6249844;22;20180;-79
2023/04/15 02:23:47;;;;;;;3.27;1.53;;;;;;;5.54;65.11;94564.09;6277392;22;20159;-79
2023/04/15 02:26:12;;;;;;;4.33;1.60;;;;;;;5.53;65.49;94565.06;6251162;22;20168;-77
2023/04/15 02:28:38;;;;;;;5.93;2.13;;;;;;;5.47;65.54;94570.75;6276329;22;20189;-78
2023/04/15 02:31:07;;;;;;;3.03;1.57;;;;;;;5.41;65.94;94564.41;6258385;22;20226;-81
2023/04/15 02:33:32;;;;;;;3.80;1.60;;;;;;;5.34;66.42;94566.72;6227770;22;20167;-80
2023/04/15 02:35:58;;;;;;;2.63;1.70;;;;;;;5.20;66.23;94567.16;6285893;22;20220;-81
2023/04/15 02:38:23;;;;;;;3.10;1.77;;;;;;;5.10;66.83;94566.38;6230176;22;20184;-80
2023/04/15 02:40:49;;;;;;;5.27;1.77;;;;;;;5.00;67.41;94568.16;6225271;22;20163;-80
2023/04/15 02:43:16;;;;;;;6.77;1.90;;;;;;;5.05;67.04;94566.81;6250211;22;20195;-79
2023/04/15 02:45:42;;;;;;;3.27;1.50;;;;;;;5.11;66.83;94568.00;6249881;22;20164;-80
2023/04/15 02:48:07;;;;;;;3.50;2.00;;;;;;;5.11;66.78;94566.22;6223930;22;20505;-81
2023/04/15 02:50:33;;;;;;;4.77;2.00;;;;;;;5.09;66.62;94563.00;6224427;22;20163;-80
2023/04/15 02:53:00;;;;;;;5.83;1.70;;;;;;;5.14;66.54;94560.00;6250047;22;20149;-79
2023/04/15 02:55:25;;;;;;;2.67;1.50;;;;;;;5.07;65.92;94564.09;6225681;22;20210;-81
2023/04/15 02:57:51;;;;;;;4.13;1.87;;;;;;;5.05;66.46;94556.50;6225074;22;20184;-78
2023/04/15 03:00:16;;;;;;;3.80;1.80;;;;;;;5.01;66.40;94562.06;6278725;22;20282;-80
2023/04/15 03:02:42;;;;;;;5.03;1.70;;;;;;;4.94;67.13;94563.53;6226261;22;20165;-79
2023/04/15 03:05:11;;;;;;;5.83;1.53;;;;;;;4.96;66.86;94564.25;6227361;22;20156;-79
2023/04/15 03:07:36;;;;;;;5.10;1.70;;;;;;;5.02;66.29;94564.47;6226500;22;20169;-79
2023/04/15 03:10:02;;;;;;;3.53;1.70;;;;;;;5.06;65.99;94565.03;6227303;22;20195;-80
2023/04/15 03:12:29;;;;;;;4.00;1.67;;;;;;;5.00;66.71;94568.16;6279661;22;20175;-80
2023/04/15 03:14:54;;;;;;;4.20;1.90;;;;;;;5.06;66.08;94567.59;6251354;22;20254;-80
2023/04/15 03:17:19;;;;;;;3.10;2.40;;;;;;;5.06;65.99;94560.69;6226546;22;20184;-80
2023/04/15 03:19:45;;;;;;;3.67;1.80;;;;;;;5.05;66.51;94563.41;6252495;22;20161;-80
2023/04/15 03:22:10;;;;;;;4.70;1.60;;;;;;;4.96;66.40;94562.47;6227642;22;20198;-81
2023/04/15 03:24:35;;;;;;;6.27;2.00;;;;;;;4.87;66.51;94567.63;6253137;22;20202;-79
2023/04/15 03:27:01;;;;;;;3.37;1.60;;;;;;;4.84;66.82;94561.78;6252329;22;20174;-81
2023/04/15 03:29:26;;;;;;;9.47;2.50;;;;;;;4.87;67.01;94571.03;6252675;22;20159;-81
2023/04/15 03:31:52;;;;;;;5.73;1.70;;;;;;;4.83;67.31;94562.75;6227768;22;20180;-80
2023/04/15 03:34:17;;;;;;;3.23;1.50;;;;;;;4.91;66.44;94567.22;6227874;22;20186;-81
2023/04/15 03:36:43;;;;;;;4.07;1.73;;;;;;;4.87;66.75;94567.63;6226065;22;20176;-81
2023/04/15 03:39:08;;;;;;;4.23;1.90;;;;;;;4.76;67.12;94561.66;6280447;22;20148;-80
2023/04/15 03:41:33;;;;;;;5.23;1.50;;;;;;;4.76;67.15;94564.22;6253586;22;20530;-80
2023/04/15 03:43:58;;;;;;;3.27;1.67;;;;;;;4.71;67.54;94560.47;6253412;22;20159;-80
2023/04/15 03:46:24;;;;;;;3.20;1.70;;;;;;;4.75;67.23;94562.63;6227616;22;20180;-80
2023/04/15 03:48:49;;;;;;;5.57;1.87;;;;;;;4.73;67.21;94554.22;6253931;22;20152;-80
2023/04/15 03:51:15;;;;;;;3.17;1.50;;;;;;;4.77;67.04;94565.03;6253386;22;20152;-79
2023/04/15 03:53:40;;;;;;;4.37;2.07;;;;;;;4.82;66.59;94555.97;6253163;22;20169;-80
2023/04/15 03:56:05;;;;;;;4.00;1.70;;;;;;;4.72;67.28;94552.59;6252904;22;20208;-80
2023/04/15 03:58:31;;;;;;;3.00;1.63;;;;;;;4.70;67.14;94556.28;6253630;22;20233;-81
2023/04/15 04:00:56;;;;;;;3.53;1.40;;;;;;;4.77;66.70;94555.59;6228269;22;20624;-80
2023/04/15 04:03:22;;;;;;;3.40;1.60;;;;;;;4.77;66.41;94557.31;6253679;22;20164;-81
2023/04/15 04:05:47;;;;;;;5.10;1.77;;;;;;;4.75;66.78;94561.81;6228997;22;20165;-79
2023/04/15 04:08:12;;;;;;;5.70;1.70;;;;;;;4.72;67.01;94554.38;6229253;22;20157;-80
2023/04/15 04:10:38;;;;;;;5.23;1.90;;;;;;;4.73;66.68;94553.41;6255077;22;20495;-81
2023/04/15 04:13:03;;;;;;;6.13;1.87;;;;;;;4.65;66.80;94546.38;6254773;22;20152;-80
2023/04/15 04:15:29;;;;;;;5.97;2.00;;;;;;;4.68;66.64;94553.84;6228590;22;20160;-80
2023/04/15 04:17:54;;;;;;;4.47;1.87;;;;;;;4.62;66.70;94556.13;6250754;22;20199;-81
2023/04/15 04:20:20;;;;;;;3.23;1.40;;;;;;;4.68;66.64;94561.56;6227773;22;20165;-80
2023/04/15 04:22:45;;;;;;;3.83;1.67;;;;;;;4.64;66.82;94560.19;6227536;22;20638;-82
2023/04/15 04:25:11;;;;;;;4.50;1.67;;;;;;;4.69;66.59;94565.75;6253334;22;20160;-79
2023/04/15 04:27:36;;;;;;;3.83;1.60;;;;;;;4.71;66.53;94563.03;6252721;22;20176;-80
2023/04/15 04:30:02;;;;;;;5.57;1.90;;;;;;;4.68;67.01;94564.13;6254262;22;20208;-80
2023/04/15 04:32:27;;;;;;;5.07;2.10;;;;;;;4.76;66.37;94566.81;6253491;22;20164;-80
2023/04/15 04:34:53;;;;;;;4.57;2.00;;;;;;;4.73;66.43;94561.94;6253683;22;20206;-80
2023/04/15 04:37:18;;;;;;;4.80;1.90;;;;;;;4.68;66.83;94569.28;6226648;22;20531;-81
2023/04/15 04:39:43;;;;;;;5.57;1.83;;;;;;;4.67;67.02;94571.97;6227609;22;20171;-81
2023/04/15 04:42:08;;;;;;;5.97;2.17;;;;;;;4.70;67.39;94567.38;6252938;22;20164;-79
2023/04/15 04:44:34;;;;;;;6.57;2.10;;;;;;;4.69;67.06;94565.75;6227416;22;20172;-81
2023/04/15 04:46:59;;;;;;;5.83;1.70;;;;;;;4.80;66.89;94570.75;6252614;22;20553;-80
2023/04/15 04:49:24;;;;;;;6.13;2.10;;;;;;;4.73;66.95;94563.72;6253834;22;20531;-81
2023/04/15 04:51:50;;;;;;;3.27;1.50;;;;;;;4.84;66.33;94569.50;6229898;22;20161;-80
2023/04/15 04:54:15;;;;;;;5.13;1.67;;;;;;;4.92;65.95;94573.97;6230013;22;20637;-79
2023/04/15 04:56:41;;;;;;;3.73;1.50;;;;;;;5.00;65.93;94574.09;6230097;22;20183;-81
2023/04/15 04:59:06;;;;;;;3.27;1.87;;;;;;;5.13;65.69;94573.84;6230247;22;20207;-81
2023/04/15 05:01:32;;;;;;;5.43;1.97;;;;;;;5.15;65.28;94577.06;6230135;22;20148;-81
2023/04/15 05:03:58;;;;;;;4.13;2.20;;;;;;;5.34;64.60;94581.38;6230399;22;20163;-80
2023/04/15 05:06:23;;;;;;;4.23;1.50;;;;;;;5.28;64.51;94582.72;6253723;22;20172;-80
2023/04/15 05:08:49;;;;;;;4.37;1.80;;;;;;;5.38;64.65;94586.09;6230915;22;20172;-80
2023/04/15 05:11:15;;;;;;;6.37;1.97;;;;;;;5.48;63.88;94586.09;6256069;22;20161;-81
2023/04/15 05:13:40;;;;;;;2.83;1.90;;;;;;;5.54;63.80;94582.13;6255899;22;20160;-80
2023/04/15 05:16:06;;;;;;;6.00;1.70;;;;;;;5.57;63.50;94587.81;6229393;22;20184;-81
2023/04/15 05:18:31;;;;;;;4.30;1.57;;;;;;;5.74;63.04;94591.41;6230190;22;20167;-81
2023/04/15 05:20:57;;;;;;;6.13;1.60;;;;;;;5.76;63.44;94586.94;6230953;22;20246;-79
2023/04/15 05:23:22;;;;;;;8.73;1.93;;;;;;;5.98;62.76;94585.78;6230399;22;20190;-80
2023/04/15 05:25:47;;;;;;;4.93;1.67;;;;;;;5.94;62.71;94590.41;6230540;22;20157;-80
2023/04/15 05:28:13;;;;;;;3.97;2.13;;;;;;;5.95;62.81;94588.66;6256177;22;20148;-79
2023/04/15 05:30:38;;;;;;;5.13;1.77;;;;;;;5.95;62.44;94592.03;6230391;22;20163;-81
2023/04/15 05:33:04;;;;;;;7.83;2.17;;;;;;;6.24;61.98;94591.88;6254741;22;20148;-80
2023/04/15 05:35:29;;;;;;;13.57;2.10;;;;;;;6.12;62.47;94590.47;6229877;22;20175;-82
2023/04/15 05:37:54;;;;;;;3.00;1.80;;;;;;;6.36;61.50;94586.50;6254090;22;20176;-81
2023/04/15 05:40:20;;;;;;;3.10;1.70;;;;;;;6.32;61.75;94591.16;6255865;22;20153;-81
2023/04/15 05:42:45;;;;;;;6.60;2.47;;;;;;;6.40;61.85;94588.66;6255683;22;20156;-82
2023/04/15 05:45:11;;;;;;;3.97;1.87;;;;;;;6.21;62.03;94592.19;6230522;22;20176;-81
2023/04/15 05:47:37;;;;;;;3.57;1.70;;;;;;;6.42;61.47;94594.47;6228914;22;20172;-80
2023/04/15 05:50:02;;;;;;;3.80;1.87;;;;;;;6.46;61.61;94598.41;6228640;22;20160;-80
2023/04/15 05:52:28;;;;;;;5.30;1.80;;;;;;;6.49;61.48;94595.53;6254704;22;20187;-81
2023/04/15 05:54:56;;;;;;;6.20;2.23;;;;;;;6.55;60.91;94595.91;6228995;22;20160;-80
2023/04/15 05:57:22;;;;;;;4.13;1.70;;;;;;;6.79;60.84;94602.09;6226285;22;20622;-80
2023/04/15 05:59:47;;;;;;;5.03;1.90;;;;;;;7.03;60.25;94608.44;6227523;22;20167;-80
2023/04/15 06:02:13;;;;;;;5.63;1.80;;;;;;;7.16;59.53;94603.72;6223738;22;20164;-79
2023/04/15 06:04:38;;;;;;;7.03;2.07;;;;;;;7.27;59.14;94603.47;6261082;22;20153;-82
2023/04/15 06:07:03;;;;;;;4.37;2.63;;;;;;;7.47;59.12;94598.94;6249084;22;20152;-82
2023/04/15 06:09:29;;;;;;;4.83;1.87;;;;;;;7.51;59.10;94596.84;6275672;22;20167;-82
2023/04/15 06:11:55;;;;;;;5.67;1.83;;;;;;;7.71;57.89;94603.44;6234434;22;20156;-84
2023/04/15 06:14:21;;;;;;;4.77;2.00;;;;;;;7.84;57.33;94608.19;6226707;22;20247;-80
2023/04/15 06:16:46;;;;;;;6.03;2.37;;;;;;;7.98;57.23;94609.41;6252153;22;20236;-84
2023/04/15 06:19:11;;;;;;;4.03;1.60;;;;;;;8.39;56.18;94607.78;6227853;22;20168;-82
2023/04/15 06:21:37;;;;;;;2.47;1.60;;;;;;;8.70;55.61;94608.84;6228980;22;20172;-83
2023/04/15 06:24:02;;;;;;;4.57;1.97;;;;;;;8.86;54.68;94604.69;6227503;22;20697;-83
2023/04/15 06:26:28;;;;;;;3.60;1.87;;;;;;;9.15;54.89;94612.78;6253671;22;20210;-82
2023/04/15 06:28:53;;;;;;;4.10;1.83;;;;;;;8.76;55.11;94612.59;6228626;22;20184;-82
2023/04/15 06:31:18;;;;;;;5.20;2.23;;;;;;;8.46;54.45;94614.78;6255217;22;20160;-83
2023/04/15 06:33:44;;;;;;;2.83;1.50;;;;;;;8.16;54.23;94620.47;6230213;22;20464;-83
2023/04/15 06:36:09;;;;;;;7.33;2.00;;;;;;;8.05;55.54;94620.75;6255297;22;20634;-84
2023/04/15 06:38:35;;;;;;;8.07;1.83;;;;;;;8.48;55.13;94619.78;6231150;22;20160;-84
2023/04/15 06:41:00;;;;;;;4.53;2.23;;;;;;;8.73;54.24;94616.28;6256193;22;20164;-82
2023/04/15 06:43:26;;;;;;;4.53;1.60;;;;;;;8.99;53.60;94623.13;6231033;22;20606;-82
2023/04/15 06:45:51;;;;;;;3.00;1.80;;;;;;;9.04;53.46;94626.88;6229900;22;20252;-83
2023/04/15 06:48:16;;;;;;;2.57;1.87;;;;;;;9.11;53.80;94624.47;6256404;22;20148;-83
2023/04/15 06:50:42;;;;;;;5.73;2.10;;;;;;;9.18;53.41;94628.00;6230505;22;20183;-83
2023/04/15 06:53:07;;;;;;;4.33;2.00;;;;;;;9.32;53.60;94618.78;6230304;22;20196;-83
2023/04/15 06:55:33;;;;;;;4.73;2.23;;;;;;;9.34;52.91;94624.59;6256971;22;20152;-83
2023/04/15 06:57:58;;;;;;;2.93;1.60;;;;;;;9.45;51.54;94626.06;6255544;22;20191;-83
2023/04/15 07:00:24;;;;;;;2.73;2.17;;;;;;;9.57;52.00;94627.38;6230583;22;20160;-84
2023/04/15 07:02:50;;;;;;;5.50;1.90;;;;;;;9.78;50.96;94626.84;6230479;22;20163;-81
2023/04/15 07:05:15;;;;;;;4.07;2.00;;;;;;;9.56;49.79;94626.56;6204060;22;20202;-82
2023/04/15 07:07:41;;;;;;;4.37;1.80;;;;;;;9.59;50.62;94628.00;6162450;23;20623;-82
2023/04/15 07:10:06;;;;;;;5.30;1.77;;;;;;;9.67;50.18;94630.59;6163904;23;20222;-80
2023/04/15 07:12:34;;;;;;;4.03;1.43;;;;;;;10.14;48.75;94627.22;6162591;23;20624;-84
2023/04/15 07:15:21;;;;;;;5.03;1.70;;;;;;;10.20;48.35;94623.97;6165221;23;20481;-84
2023/04/15 07:27:45;;;;;;;3.53;1.93;;;;;;;11.25;47.31;94625.22;6164677;23;20217;-80
2023/04/15 07:30:11;;;;;;;2.20;1.47;;;;;;;11.49;47.62;94629.44;6136511;23;20159;-82
2023/04/15 07:32:36;;;;;;;3.83;1.67;;;;;;;11.50;46.34;94631.03;6163283;23;20155;-82
2023/04/15 07:35:02;;;;;;;4.00;1.80;;;;;;;11.56;46.17;94632.09;6137077;23;20155;-83
2023/04/15 07:37:28;;;;;;;5.53;2.40;;;;;;;12.04;44.51;94627.47;6132944;23;20746;-83
2023/04/15 07:39:53;;;;;;;4.40;1.80;;;;;;;12.06;44.78;94639.31;6137108;23;20561;-82
2023/04/15 07:42:19;;;;;;;3.87;1.80;;;;;;;12.33;44.14;94631.88;6136939;23;20242;-82
2023/04/15 07:44:44;;;;;;;3.40;1.40;;;;;;;12.29;43.32;94634.03;6160677;23;20159;-83
2023/04/15 07:47:09;;;;;;;3.93;1.53;;;;;;;12.42;42.74;94636.00;6134943;23;20190;-83
2023/04/15 07:49:35;;;;;;;3.17;1.70;;;;;;;12.59;41.88;94631.41;6162887;23;20162;-82
2023/04/15 07:52:00;;;;;;;4.73;1.20;;;;;;;12.43;42.07;94643.63;6136136;23;20159;-83
2023/04/15 07:54:26;;;;;;;3.30;1.63;;;;;;;12.69;42.37;94632.72;6162850;23;20691;-83
2023/04/15 07:56:51;;;;;;;4.63;1.80;;;;;;;12.98;42.26;94634.44;6135561;23;20180;-83
2023/04/15 07:59:17;;;;;;;5.30;1.57;;;;;;;12.46;40.33;94642.47;6134955;23;20658;-83
2023/04/15 08:01:42;;;;;;;6.13;1.90;;;;;;;12.17;42.98;94635.47;6110236;23;20170;-84
2023/04/15 08:04:08;;;;;;;4.70;1.80;;;;;;;12.48;42.12;94643.09;6134982;23;20393;-83
2023/04/15 08:06:35;;;;;;;4.03;2.03;;;;;;;12.34;43.12;94641.28;6134686;23;20182;-82
2023/04/15 08:09:00;;;;;;;3.80;1.90;;;;;;;11.82;43.16;94640.34;6113946;23;20155;-82
2023/04/15 08:11:26;;;;;;;4.27;1.40;;;;;;;11.94;43.56;94637.34;6134667;23;20473;-81
2023/04/15 08:13:51;;;;;;;2.80;1.57;;;;;;;12.12;42.65;94641.22;6111050;23;20230;-80
2023/04/15 08:16:22;;;;;;;4.90;1.67;;;;;;;12.09;41.83;94636.34;6135217;23;20171;-81
2023/04/15 08:18:48;;;;;;;3.67;2.10;;;;;;;12.43;43.43;94642.81;6135852;23;20545;-81
2023/04/15 08:21:14;;;;;;;5.90;1.90;;;;;;;12.58;42.71;94633.19;6134989;23;20202;-82
2023/04/15 08:23:39;;;;;;;4.50;1.80;;;;;;;12.51;42.35;94634.09;6110862;23;20160;-81
2023/04/15 08:26:05;;;;;;;6.43;2.00;;;;;;;12.74;42.01;94643.41;6111160;23;20186;-82
2023/04/15 08:28:30;;;;;;;5.67;1.70;;;;;;;12.94;41.31;94645.44;6160697;23;20243;-82
2023/04/15 08:30:56;;;;;;;4.07;1.43;;;;;;;12.59;40.94;94647.84;6111936;23;20167;-82
2023/04/15 08:33:21;;;;;;;4.20;1.70;;;;;;;12.58;41.08;94646.22;6135171;23;20254;-82
2023/04/15 08:35:47;;;;;;;3.83;1.90;;;;;;;12.66;41.18;94640.09;6161183;23;20159;-81
2023/04/15 08:38:13;;;;;;;5.03;2.05;;;;;;;12.30;42.12;94648.66;6134827;23;20462;-82
2023/04/15 08:40:41;;;;;;;4.15;2.00;;;;;;;12.66;40.65;94655.72;6134063;23;20385;-81
2023/04/15 08:43:08;;;;;;;2.57;1.70;;;;;;;12.83;40.30;94656.34;6136939;23;20159;-81
2023/04/15 08:45:35;;;;;;;5.63;2.27;;;;;;;12.75;40.31;94650.25;6159925;23;20241;-83
2023/04/15 08:48:01;;;;;;;4.07;1.60;;;;;;;12.70;39.87;94646.56;6109431;23;20176;-81
2023/04/15 08:50:28;;;;;;;3.77;2.07;;;;;;;12.69;39.95;94650.16;6160352;23;20219;-82
2023/04/15 08:52:54;;;;;;;5.63;1.87;;;;;;;12.63;40.51;94649.09;6110826;23;20163;-83
2023/04/15 08:55:20;;;;;;;4.17;1.90;;;;;;;12.84;39.69;94650.94;6135712;23;20250;-83
2023/04/15 08:57:45;;;;;;;6.67;1.90;;;;;;;12.57;39.43;94660.22;6134511;23;20179;-83
2023/04/15 09:00:12;;;;;;;6.93;2.23;;;;;;;12.84;39.86;94652.75;6136356;23;20163;-81
2023/04/15 09:02:38;;;;;;;2.40;1.57;;;;;;;12.99;40.30;94656.94;6109423;23;20163;-82
2023/04/15 09:05:05;;;;;;;2.87;1.40;;;;;;;13.10;38.70;94655.63;6135271;23;20159;-80
2023/04/15 09:07:32;;;;;;;1.93;1.70;;;;;;;13.18;39.11;94662.53;6161220;23;20167;-82
2023/04/15 09:09:58;;;;;;;6.67;1.70;;;;;;;12.97;40.05;94660.69;6112055;23;20183;-81
2023/04/15 09:12:23;;;;;;;3.97;1.60;;;;;;;13.24;39.90;94667.81;6135398;23;20187;-82
2023/04/15 09:14:48;;;;;;;4.60;2.57;;;;;;;13.11;39.05;94672.88;6136538;23;20527;-82
2023/04/15 09:17:17;;;;;;;4.43;2.10;;;;;;;12.78;40.30;94672.50;6135308;23;20194;-82
2023/04/15 09:19:43;;;;;;;2.57;1.73;;;;;;;13.16;40.21;94672.31;6134659;23;20275;-81
2023/04/15 09:22:08;;;;;;;3.73;1.87;;;;;;;12.24;41.64;94682.41;6110720;23;20170;-82
2023/04/15 09:24:37;;;;;;;3.30;1.90;;;;;;;12.79;41.99;94679.31;6135866;23;20493;-81
2023/04/15 09:27:02;;;;;;;4.10;2.50;;;;;;;13.15;41.87;94681.94;6134353;23;20172;-82
2023/04/15 09:29:27;;;;;;;4.13;1.93;;;;;;;13.05;41.08;94682.25;6181358;23;20168;-82
2023/04/15 09:31:53;;;;;;;4.40;2.30;;;;;;;12.52;43.31;94688.59;6186038;23;20150;-80
2023/04/15 09:34:18;;;;;;;4.60;2.50;;;;;;;12.80;42.56;94680.94;6181545;23;20182;-81
2023/04/15 09:36:56;;;;;;;4.53;2.50;;;;;;;13.33;41.86;94682.38;6180001;23;20186;-85
2023/04/15 09:39:22;;;;;;;3.70;2.20;;;;;;;13.16;41.29;94687.97;6184337;23;20458;-79
2023/04/15 09:42:04;;;;;;;4.53;2.33;;;;;;;13.62;41.53;94683.25;6185818;23;20174;-80
2023/04/15 09:44:30;;;;;;;4.80;2.50;;;;;;;13.68;41.81;94690.31;6184934;23;20594;-80
2023/04/15 09:46:55;;;;;;;4.47;2.10;;;;;;;14.38;42.49;94692.06;6184301;23;20233;-82
2023/04/15 09:49:20;;;;;;;3.60;1.90;;;;;;;14.31;40.52;94693.00;6185105;23;20190;-80
2023/04/15 09:51:46;;;;;;;2.17;1.97;;;;;;;14.34;40.80;94693.44;6183703;23;20151;-81
2023/04/15 09:54:11;;;;;;;5.93;2.53;;;;;;;14.60;41.30;94690.22;6182260;23;20185;-81
2023/04/15 09:56:40;;;;;;;4.60;2.00;;;;;;;14.54;40.21;94698.00;6205749;23;20224;-82
2023/04/15 09:59:06;;;;;;;4.43;2.33;;;;;;;14.65;40.18;94697.47;6184085;23;20162;-79
2023/04/15 10:01:31;;;;;;;3.07;1.70;;;;;;;13.94;39.20;94691.53;6182998;23;20163;-83
2023/04/15 10:03:57;;;;;;;5.00;2.53;;;;;;;13.40;39.19;94699.88;6183080;23;20199;-82
2023/04/15 10:06:25;;;;;;;4.77;2.13;;;;;;;13.72;39.16;94701.19;6180482;23;20254;-80
2023/04/15 10:08:51;;;;;;;3.83;2.00;;;;;;;13.67;39.98;94703.56;6159700;23;20151;-82
2023/04/15 10:11:17;;;;;;;4.10;1.63;;;;;;;13.96;39.96;94697.38;6186392;23;20205;-82
2023/04/15 10:13:43;;;;;;;4.63;2.00;;;;;;;13.79;40.06;94697.66;6187843;23;20161;-82
2023/04/15 10:16:10;;;;;;;6.67;2.30;;;;;;;13.93;40.21;94706.38;6184702;23;20253;-83
2023/04/15 10:18:41;;;;;;;7.17;2.47;;;;;;;14.03;40.54;94703.44;6186988;23;20576;-83
2023/04/15 10:21:07;;;;;;;3.47;1.90;;;;;;;13.58;38.41;94715.91;6185331;23;20656;-81
2023/04/15 10:23:33;;;;;;;3.07;1.90;;;;;;;13.21;39.26;94714.31;6186432;23;20202;-82
2023/04/15 10:25:58;;;;;;;4.90;1.90;;;;;;;13.98;40.19;94709.25;6187337;23;20617;-81
2023/04/15 10:28:25;;;;;;;3.93;2.30;;;;;;;12.99;41.66;94716.06;6163043;23;20212;-83
2023/04/15 10:30:51;;;;;;;5.60;2.40;;;;;;;13.60;41.63;94704.31;6188343;23;20643;-83
2023/04/15 10:33:20;;;;;;;7.23;2.67;;;;;;;13.67;41.87;94719.22;6188293;23;20154;-83
2023/04/15 10:35:46;;;;;;;7.03;3.00;;;;;;;13.59;42.11;94720.13;6160877;23;20403;-83
2023/04/15 10:38:37;;;;;;;5.70;2.80;;;;;;;13.27;41.60;94721.44;6187084;23;20187;-84
2023/04/15 10:41:20;;;;;;;4.23;2.23;;;;;;;13.43;40.31;94728.19;6188220;23;20244;-82
2023/04/15 10:43:47;;;;;;;7.10;2.50;;;;;;;13.73;42.00;94716.66;6188577;23;20202;-83
2023/04/15 10:46:13;;;;;;;7.60;3.00;;;;;;;13.57;42.64;94727.34;6209203;23;20603;-82
2023/04/15 10:48:46;;;;;;;5.80;2.90;;;;;;;13.37;42.76;94729.75;6188168;23;20181;-82
2023/04/15 10:51:12;;;;;;;5.90;3.00;;;;;;;13.64;40.38;94737.84;6188922;23;20159;-81
2023/04/15 10:53:41;;;;;;;6.77;2.40;;;;;;;13.69;39.67;94731.06;6173372;23;20193;-80
2023/04/15 10:56:06;;;;;;;3.20;2.10;;;;;;;13.81;39.78;94741.81;6182147;23;20250;-80
2023/04/15 10:58:41;;;;;;;4.23;2.83;;;;;;;13.79;39.58;94744.63;6207963;23;20187;-79
2023/04/15 11:01:06;;;;;;;8.83;3.57;;;;;;;13.36;41.00;94742.97;6208464;23;20138;-80
2023/04/15 11:03:40;;;;;;;6.13;2.93;;;;;;;13.30;41.17;94744.50;6198657;23;20577;-81
2023/04/15 11:06:06;;;;;;;5.63;3.07;;;;;;;13.26;42.11;94741.47;6193804;23;20672;-82
2023/04/15 11:08:53;;;;;;;4.60;2.90;;;;;;;13.23;41.56;94754.06;6193805;23;20209;-82
2023/04/15 11:11:18;;;;;;;4.97;2.30;;;;;;;12.95;40.50;94752.09;6218078;23;20162;-81
2023/04/15 11:13:51;;;;;;;5.30;3.10;;;;;;;12.66;42.13;94752.91;6192412;23;20169;-81
2023/04/15 11:16:16;;;;;;;4.80;2.60;;;;;;;12.99;42.08;94758.56;6166877;23;20178;-82
2023/04/15 11:18:52;;;;;;;7.03;3.40;;;;;;;12.81;42.74;94763.34;6193182;23;20186;-81
2023/04/15 11:21:18;;;;;;;5.13;2.87;;;;;;;11.99;43.10;94757.28;6167485;23;20166;-82
2023/04/15 11:23:46;;;;;;;7.33;2.50;;;;;;;12.51;42.99;94757.31;6192222;23;20151;-81
2023/04/15 11:26:11;;;;;;;5.00;2.50;;;;;;;13.03;42.16;94764.22;6192351;23;20174;-82
2023/04/15 11:28:42;;;;;;;8.53;3.30;;;;;;;12.84;42.28;94756.97;6192632;23;20173;-82
2023/04/15 11:31:12;;;;;;;5.37;3.27;;;;;;;12.73;43.24;94768.66;6191364;23;20229;-82
2023/04/15 11:33:53;;;;;;;6.10;3.40;;;;;;;12.74;43.75;94771.06;6192491;23;20382;-82
2023/04/15 11:36:18;;;;;;;5.47;3.10;;;;;;;12.84;42.97;94770.78;6191451;23;20178;-80
2023/04/15 11:38:46;;;;;;;7.17;3.57;;;;;;;13.11;42.57;94771.94;6192228;23;20237;-82
2023/04/15 11:41:11;;;;;;;5.43;3.40;;;;;;;13.38;41.73;94767.06;6142813;23;20166;-82
2023/04/15 11:43:36;;;;;;;5.80;3.80;;;;;;;13.46;42.08;94764.34;6191466;23;20154;-81